Time;durP1;ratioP1;P1;durP2;ratioP2;P2;SDS_P1;SDS_P2;PMS_P1;PMS_P2;Temp;Humidity;BMP_temperature;BMP_pressure;BME280_temperature;BME280_humidity;BME280_pressure;Samples;Min_cycle;Max_cycle;Signal;HPM_P1;HPM_P2
2022/06/20 00:00:11;;;;;;;14.88;7.40;;;20.80;99.90;;;;;;4965537;28;20479;-38
2022/06/20 00:02:48;;;;;;;11.45;7.20;;;20.90;99.90;;;;;;4965972;28;20031;-36
2022/06/20 00:05:17;;;;;;;14.25;7.40;;;20.90;99.90;;;;;;4964508;28;20049;-36
2022/06/20 00:07:43;;;;;;;10.90;6.85;;;21.00;99.90;;;;;;4968911;28;20121;-38
2022/06/20 00:10:11;;;;;;;12.75;6.85;;;21.10;99.90;;;;;;4965927;28;20083;-37
2022/06/20 00:12:37;;;;;;;13.10;7.53;;;21.00;99.90;;;;;;4966284;28;20576;-39
2022/06/20 00:15:06;;;;;;;12.65;7.32;;;20.80;99.90;;;;;;4969573;28;20035;-39
2022/06/20 00:17:32;;;;;;;11.25;7.00;;;20.40;99.90;;;;;;4965530;28;20485;-36
2022/06/20 00:19:57;;;;;;;13.15;8.68;;;19.90;99.90;;;;;;4965019;28;20038;-37
2022/06/20 00:22:23;;;;;;;15.13;7.22;;;19.60;99.90;;;;;;4966739;28;20035;-35
2022/06/20 00:24:48;;;;;;;10.48;6.93;;;19.50;99.90;;;;;;4966052;28;20042;-39
2022/06/20 00:27:14;;;;;;;14.65;7.07;;;19.70;99.90;;;;;;4969774;28;20457;-36
2022/06/20 00:29:42;;;;;;;12.93;7.30;;;19.70;99.90;;;;;;4967150;28;20392;-39
2022/06/20 00:32:10;;;;;;;13.18;7.22;;;19.70;99.90;;;;;;4967862;28;20081;-36
2022/06/20 00:34:35;;;;;;;11.63;6.50;;;19.80;99.90;;;;;;4968749;28;20035;-38
2022/06/20 00:37:01;;;;;;;15.18;7.93;;;19.80;99.90;;;;;;4963608;28;20042;-39
2022/06/20 00:39:27;;;;;;;11.95;6.68;;;19.50;99.90;;;;;;4966994;28;20035;-37
2022/06/20 00:41:53;;;;;;;15.65;7.65;;;19.40;99.90;;;;;;4961680;28;20263;-38
2022/06/20 00:44:29;;;;;;;14.68;8.00;;;19.30;99.90;;;;;;4967895;28;20037;-37
2022/06/20 00:47:01;;;;;;;13.10;7.57;;;19.50;99.90;;;;;;4964341;28;20443;-37
2022/06/20 00:49:29;;;;;;;13.73;7.32;;;19.80;99.90;;;;;;4966711;28;20015;-37
2022/06/20 00:52:10;;;;;;;13.25;6.88;;;19.80;99.90;;;;;;4966101;28;20511;-39
2022/06/20 00:54:41;;;;;;;14.05;7.88;;;20.00;99.90;;;;;;4965694;28;20435;-38
2022/06/20 00:57:35;;;;;;;15.25;7.20;;;20.20;99.90;;;;;;4958020;28;20037;-39
2022/06/20 01:00:11;;;;;;;13.32;7.38;;;20.20;99.90;;;;;;4963563;28;20054;-38
2022/06/20 01:02:43;;;;;;;9.82;6.85;;;20.20;99.90;;;;;;4969616;28;20061;-36
2022/06/20 01:05:20;;;;;;;13.07;7.38;;;20.20;99.90;;;;;;4967657;28;20035;-38
2022/06/20 01:07:56;;;;;;;13.25;7.35;;;20.30;99.90;;;;;;4968441;28;20038;-39
2022/06/20 01:10:25;;;;;;;10.77;7.30;;;20.40;99.90;;;;;;4970256;28;20023;-39
2022/06/20 01:12:59;;;;;;;13.65;7.32;;;20.20;99.90;;;;;;4973194;28;20047;-38
2022/06/20 01:15:32;;;;;;;15.52;8.00;;;20.00;99.90;;;;;;4972165;28;20106;-37
2022/06/20 01:17:58;;;;;;;15.30;8.05;;;19.80;99.90;;;;;;4967094;28;20023;-39
2022/06/20 01:20:34;;;;;;;13.95;7.63;;;19.70;99.90;;;;;;4973406;28;20033;-37
2022/06/20 01:23:02;;;;;;;15.52;7.13;;;19.50;99.90;;;;;;4969186;28;20109;-35
2022/06/20 01:25:28;;;;;;;16.42;8.10;;;19.60;99.90;;;;;;4968865;28;20110;-39
2022/06/20 01:27:54;;;;;;;16.75;8.05;;;19.70;99.90;;;;;;4970945;28;20122;-39
2022/06/20 01:30:22;;;;;;;12.48;7.47;;;19.70;99.90;;;;;;4970875;28;20521;-39
2022/06/20 01:32:48;;;;;;;11.90;7.28;;;19.70;99.90;;;;;;4972598;28;20061;-37
2022/06/20 01:37:23;;;;;;;15.35;7.50;;;19.80;99.90;;;;;;4971342;28;20046;-38
2022/06/20 01:38:11;;;;;;;12.32;6.78;;;19.80;99.90;;;;;;4969118;28;20121;-38
2022/06/20 01:40:39;;;;;;;13.57;7.10;;;19.80;99.90;;;;;;4971595;28;20058;-37
2022/06/20 01:43:06;;;;;;;12.80;7.22;;;19.60;99.90;;;;;;4970660;28;20037;-39
2022/06/20 01:48:21;;;;;;;15.25;7.57;;;19.10;99.90;;;;;;4969555;28;20042;-37
2022/06/20 01:50:47;;;;;;;10.30;7.25;;;18.80;99.90;;;;;;4973215;28;20488;-38
2022/06/20 01:53:18;;;;;;;12.68;7.78;;;18.80;99.90;;;;;;4972976;28;20058;-39
2022/06/20 01:55:47;;;;;;;15.63;7.65;;;18.80;99.90;;;;;;4973536;28;20038;-36
2022/06/20 01:58:18;;;;;;;12.48;8.13;;;18.80;99.90;;;;;;4971636;28;20086;-37
2022/06/20 02:00:44;;;;;;;13.95;8.80;;;19.00;99.90;;;;;;4964080;28;20031;-39
2022/06/20 02:03:17;;;;;;;20.15;8.63;;;19.00;99.90;;;;;;4971401;28;20414;-35
2022/06/20 02:05:46;;;;;;;17.23;8.55;;;19.10;99.90;;;;;;4970248;28;20046;-36
2022/06/20 02:08:16;;;;;;;17.15;7.72;;;19.20;99.90;;;;;;4971520;28;20076;-39
2022/06/20 02:10:56;;;;;;;16.27;8.13;;;19.20;99.90;;;;;;4971836;28;20035;-39
2022/06/20 02:13:25;;;;;;;12.05;7.82;;;19.30;99.90;;;;;;4968310;28;20027;-38
2022/06/20 02:15:56;;;;;;;13.80;7.80;;;19.30;99.90;;;;;;4972074;28;20038;-38
2022/06/20 02:18:22;;;;;;;14.07;8.65;;;19.30;99.90;;;;;;4967958;28;20078;-37
2022/06/20 02:20:50;;;;;;;12.77;7.38;;;19.30;99.90;;;;;;4975991;28;20101;-37
2022/06/20 02:23:19;;;;;;;19.15;8.45;;;19.20;99.90;;;;;;4975204;28;20030;-40
2022/06/20 02:25:47;;;;;;;17.02;7.70;;;19.20;99.90;;;;;;4974951;28;20036;-39
2022/06/20 02:28:16;;;;;;;;;;;19.30;99.90;;;;;;4975115;28;20050;-36
2022/06/20 02:30:42;;;;;;;12.98;7.85;;;19.30;99.90;;;;;;4976164;28;19941;-35
2022/06/20 02:33:13;;;;;;;14.02;8.43;;;19.30;99.90;;;;;;4972146;28;20058;-36
2022/06/20 02:35:40;;;;;;;16.35;8.25;;;19.30;99.90;;;;;;4972122;28;20121;-38
2022/06/20 02:38:06;;;;;;;15.10;8.40;;;19.10;99.90;;;;;;4973667;28;20073;-39
2022/06/20 02:40:33;;;;;;;13.05;7.70;;;19.20;99.90;;;;;;4978052;28;20089;-38
2022/06/20 02:43:31;;;;;;;14.88;8.13;;;19.00;99.90;;;;;;4977603;28;20066;-38
2022/06/20 02:45:57;;;;;;;;;;;19.00;99.90;;;;;;4976743;28;20038;-38
2022/06/20 02:48:25;;;;;;;13.35;8.50;;;19.20;99.90;;;;;;4972869;28;20423;-37
2022/06/20 02:50:55;;;;;;;14.35;8.00;;;19.20;99.90;;;;;;4978047;28;20045;-40
2022/06/20 02:53:26;;;;;;;17.63;8.13;;;19.10;99.90;;;;;;4976150;28;20045;-36
2022/06/20 02:55:55;;;;;;;13.55;8.27;;;19.20;99.90;;;;;;4974764;28;20050;-38
2022/06/20 02:58:29;;;;;;;13.90;8.45;;;19.10;99.90;;;;;;4974093;28;20135;-39
2022/06/20 03:01:11;;;;;;;16.95;8.65;;;19.10;99.90;;;;;;4976939;28;20135;-37
2022/06/20 03:03:41;;;;;;;15.50;7.57;;;19.10;99.90;;;;;;4971669;28;20058;-36
2022/06/20 03:06:12;;;;;;;15.65;7.55;;;19.20;99.90;;;;;;4975923;28;20054;-39
2022/06/20 03:08:38;;;;;;;15.73;8.02;;;19.20;99.90;;;;;;4974293;28;20086;-37
2022/06/20 03:11:05;;;;;;;17.40;8.13;;;19.10;99.90;;;;;;4976312;28;20236;-38
2022/06/20 03:13:33;;;;;;;15.40;7.82;;;19.00;99.90;;;;;;4972237;28;20027;-38
2022/06/20 03:16:01;;;;;;;12.43;7.78;;;19.00;99.90;;;;;;4976909;28;20062;-39
2022/06/20 03:18:27;;;;;;;16.50;8.48;;;18.90;99.90;;;;;;4972736;28;20125;-37
2022/06/20 03:20:54;;;;;;;14.73;9.00;;;19.00;99.90;;;;;;4974823;28;20035;-38
2022/06/20 03:23:32;;;;;;;14.43;8.20;;;19.10;99.90;;;;;;4971533;28;20022;-39
2022/06/20 03:26:01;;;;;;;16.17;8.27;;;19.20;99.90;;;;;;4971348;28;20038;-38
2022/06/20 03:28:29;;;;;;;18.13;7.60;;;19.30;99.90;;;;;;4971197;28;20134;-38
2022/06/20 03:30:56;;;;;;;12.93;7.97;;;19.30;99.90;;;;;;4973759;28;20507;-39
2022/06/20 03:33:22;;;;;;;11.18;8.35;;;19.20;99.90;;;;;;4974102;28;20518;-36
2022/06/20 03:36:10;;;;;;;16.75;8.57;;;19.00;99.90;;;;;;4972216;28;20051;-38
2022/06/20 03:38:37;;;;;;;18.15;8.90;;;18.90;99.90;;;;;;4971446;28;20046;-39
2022/06/20 03:41:04;;;;;;;12.00;7.97;;;18.90;99.90;;;;;;4973090;28;20034;-39
2022/06/20 03:43:32;;;;;;;18.15;7.78;;;19.00;99.90;;;;;;4974362;28;20094;-36
2022/06/20 03:46:05;;;;;;;15.02;8.07;;;19.10;99.90;;;;;;4974177;28;20037;-39
2022/06/20 03:48:49;;;;;;;12.95;7.93;;;19.20;99.90;;;;;;4975679;28;20077;-39
2022/06/20 03:51:21;;;;;;;15.50;8.20;;;19.30;99.90;;;;;;4974372;28;20034;-39
2022/06/20 03:53:55;;;;;;;15.38;8.15;;;19.40;99.90;;;;;;4971227;28;20526;-39
2022/06/20 03:56:35;;;;;;;12.88;8.00;;;19.50;99.90;;;;;;4971019;28;20030;-37
2022/06/20 03:59:25;;;;;;;11.27;7.68;;;19.10;99.90;;;;;;4975286;28;20039;-40
2022/06/20 04:02:06;;;;;;;14.95;7.55;;;19.30;99.90;;;;;;4974904;28;20082;-36
2022/06/20 04:04:54;;;;;;;18.90;8.25;;;19.20;99.90;;;;;;4973780;28;20369;-36
2022/06/20 04:07:27;;;;;;;15.68;8.32;;;19.40;99.90;;;;;;4976301;28;20030;-38
2022/06/20 04:13:07;;;;;;;19.15;8.38;;;19.70;99.90;;;;;;4972879;28;20080;-39
2022/06/20 04:15:43;;;;;;;16.30;8.30;;;19.70;99.90;;;;;;4974775;28;20801;-39
2022/06/20 04:18:28;;;;;;;14.57;8.00;;;19.90;99.90;;;;;;4974192;28;20612;-36
2022/06/20 04:21:06;;;;;;;14.00;7.90;;;19.90;99.90;;;;;;4966587;28;20554;-35
2022/06/20 04:23:54;;;;;;;14.82;8.20;;;20.00;99.90;;;;;;4971584;28;20030;-37
2022/06/20 04:26:26;;;;;;;11.70;7.78;;;20.10;99.90;;;;;;4972795;28;20102;-38
2022/06/20 04:29:02;;;;;;;14.20;8.07;;;20.20;99.90;;;;;;4973246;28;20109;-39
2022/06/20 04:31:44;;;;;;;13.18;7.50;;;20.20;99.90;;;;;;4967176;28;20126;-36
2022/06/20 04:34:25;;;;;;;12.75;7.43;;;20.30;99.90;;;;;;4972036;28;20157;-39
2022/06/20 04:37:04;;;;;;;16.58;8.90;;;20.40;99.90;;;;;;4971191;28;20064;-39
2022/06/20 04:39:53;;;;;;;16.63;8.55;;;20.50;99.90;;;;;;4968069;28;20037;-39
2022/06/20 04:42:31;;;;;;;17.00;8.07;;;20.50;99.90;;;;;;4969653;28;20495;-38
2022/06/20 04:45:02;;;;;;;13.80;8.38;;;20.60;99.90;;;;;;4970595;28;20091;-39
2022/06/20 04:47:39;;;;;;;11.82;7.90;;;20.70;99.90;;;;;;4970796;28;20496;-38
2022/06/20 04:50:13;;;;;;;15.57;7.97;;;20.70;99.90;;;;;;4964973;28;20019;-38
2022/06/20 04:52:38;;;;;;;13.52;7.50;;;20.70;99.90;;;;;;4968317;28;20054;-39
2022/06/20 04:55:04;;;;;;;16.23;8.57;;;20.70;99.90;;;;;;4968781;28;20038;-38
2022/06/20 04:57:32;;;;;;;12.73;7.95;;;20.80;99.90;;;;;;4972159;28;20058;-37
2022/06/20 05:00:03;;;;;;;12.30;7.45;;;21.00;99.90;;;;;;4970118;28;20038;-40
2022/06/20 05:02:29;;;;;;;14.93;8.30;;;21.10;99.90;;;;;;4968345;28;20488;-39
2022/06/20 05:04:59;;;;;;;18.17;8.25;;;21.20;99.90;;;;;;4969735;28;20030;-39
2022/06/20 05:07:33;;;;;;;16.58;7.68;;;21.30;99.90;;;;;;4970199;28;20022;-40
2022/06/20 05:10:24;;;;;;;14.20;7.32;;;21.40;99.50;;;;;;4969625;28;20118;-39
2022/06/20 05:13:02;;;;;;;12.88;7.13;;;21.50;99.90;;;;;;4971025;28;20031;-37
2022/06/20 05:15:42;;;;;;;13.70;6.63;;;21.70;98.30;;;;;;4965424;28;20034;-39
2022/06/20 05:18:36;;;;;;;14.70;7.55;;;22.00;97.10;;;;;;4965265;28;20066;-39
2022/06/20 05:21:08;;;;;;;16.35;6.82;;;22.20;97.30;;;;;;4967219;28;20047;-36
2022/06/20 05:23:43;;;;;;;17.13;7.00;;;22.40;97.50;;;;;;4968704;28;20531;-39
2022/06/20 05:26:15;;;;;;;20.15;8.70;;;22.30;99.90;;;;;;4965405;28;20407;-40
2022/06/20 05:28:42;;;;;;;15.90;7.47;;;22.10;99.90;;;;;;4970744;28;20106;-38
2022/06/20 05:31:09;;;;;;;16.02;8.18;;;22.00;99.90;;;;;;4967493;28;20077;-36
2022/06/20 05:33:43;;;;;;;12.40;7.57;;;21.80;99.90;;;;;;4968254;28;20039;-39
2022/06/20 05:36:33;;;;;;;15.88;8.10;;;21.70;99.90;;;;;;4964946;28;20054;-39
2022/06/20 05:39:07;;;;;;;18.30;8.85;;;21.60;99.90;;;;;;4967399;28;20046;-40
2022/06/20 05:41:33;;;;;;;14.18;8.45;;;21.40;99.90;;;;;;4960555;28;20053;-37
2022/06/20 05:43:59;;;;;;;19.00;9.55;;;21.50;99.90;;;;;;4969690;28;20035;-39
2022/06/20 05:46:43;;;;;;;17.35;8.50;;;21.40;99.90;;;;;;4963408;28;20023;-38
2022/06/20 05:49:16;;;;;;;15.32;9.05;;;21.50;99.90;;;;;;4965784;28;20057;-39
2022/06/20 05:51:44;;;;;;;14.95;8.82;;;21.60;99.90;;;;;;4965972;28;20449;-37
2022/06/20 05:54:14;;;;;;;14.50;9.23;;;21.60;99.90;;;;;;4966995;28;20026;-40
2022/06/20 05:57:00;;;;;;;17.70;9.18;;;21.40;99.90;;;;;;4968964;28;20038;-39
2022/06/20 05:59:42;;;;;;;18.75;9.75;;;21.40;99.90;;;;;;4972684;28;20034;-37
2022/06/20 06:02:25;;;;;;;16.15;9.30;;;21.50;99.90;;;;;;4968124;28;20514;-37
2022/06/20 06:05:23;;;;;;;15.63;9.65;;;21.40;99.90;;;;;;4971249;28;20023;-36
2022/06/20 06:07:55;;;;;;;16.30;9.70;;;21.50;99.90;;;;;;4969859;28;20038;-39
2022/06/20 06:10:36;;;;;;;16.80;9.95;;;21.70;99.90;;;;;;4974215;28;20523;-35
2022/06/20 06:13:11;;;;;;;18.30;9.55;;;21.90;99.90;;;;;;4967664;28;20027;-37
2022/06/20 06:18:41;;;;;;;14.13;8.60;;;22.20;99.90;;;;;;4971073;28;20518;-40
2022/06/20 06:21:07;;;;;;;17.17;9.20;;;22.30;99.90;;;;;;4970900;28;20027;-38
2022/06/20 06:23:33;;;;;;;14.32;9.65;;;22.60;99.90;;;;;;4973539;28;20049;-38
2022/06/20 06:25:58;;;;;;;14.35;9.32;;;22.80;99.90;;;;;;4973468;28;20522;-37
2022/06/20 06:28:25;;;;;;;16.00;9.55;;;22.80;99.90;;;;;;4973211;28;20041;-39
2022/06/20 06:31:06;;;;;;;15.50;9.27;;;22.90;99.90;;;;;;4974037;28;20034;-38
2022/06/20 06:33:39;;;;;;;17.50;9.07;;;23.10;99.90;;;;;;4972402;28;20073;-35
2022/06/20 06:36:12;;;;;;;13.60;8.82;;;23.30;99.90;;;;;;4971225;28;20526;-39
2022/06/20 06:38:50;;;;;;;13.52;8.60;;;23.50;99.90;;;;;;4973163;28;20038;-37
2022/06/20 06:41:38;;;;;;;12.35;8.30;;;23.80;99.90;;;;;;4972196;28;20447;-37
2022/06/20 06:44:21;;;;;;;11.73;7.97;;;23.90;99.90;;;;;;4973608;28;20046;-36
2022/06/20 06:46:50;;;;;;;14.75;7.30;;;24.10;99.90;;;;;;4967608;28;20031;-38
2022/06/20 06:49:34;;;;;;;9.80;6.78;;;24.10;99.70;;;;;;4973767;28;20034;-39
2022/06/20 06:52:15;;;;;;;8.45;6.35;;;24.30;97.10;;;;;;4971526;28;20471;-37
2022/06/20 06:55:01;;;;;;;12.68;7.55;;;24.30;95.10;;;;;;4970989;28;20034;-39
2022/06/20 06:57:47;;;;;;;13.00;6.90;;;24.50;97.30;;;;;;4972747;28;20049;-39
2022/06/20 07:00:59;;;;;;;7.82;5.55;;;24.60;95.80;;;;;;4970921;28;20812;-39
2022/06/20 07:03:35;;;;;;;8.40;5.30;;;24.80;91.00;;;;;;4927909;29;20062;-39
2022/06/20 07:06:11;;;;;;;11.82;5.80;;;24.70;83.80;;;;;;4965776;28;20027;-37
2022/06/20 07:08:49;;;;;;;6.97;5.80;;;24.70;83.70;;;;;;4972394;28;20031;-38
2022/06/20 07:11:21;;;;;;;8.85;5.60;;;24.70;84.80;;;;;;4968607;28;20049;-39
2022/06/20 07:13:57;;;;;;;10.88;5.60;;;25.10;90.80;;;;;;4972859;28;20142;-39
2022/06/20 07:16:40;;;;;;;11.73;5.70;;;25.30;87.20;;;;;;4970882;28;20098;-36
2022/06/20 07:19:08;;;;;;;6.05;4.00;;;25.30;80.90;;;;;;4970161;28;20504;-36
2022/06/20 07:21:34;;;;;;;7.55;5.18;;;25.20;74.30;;;;;;4972638;28;20118;-38
2022/06/20 07:24:02;;;;;;;10.20;5.70;;;25.10;78.80;;;;;;4972596;28;20039;-36
2022/06/20 07:26:39;;;;;;;11.30;5.45;;;25.10;79.50;;;;;;4970734;28;20380;-37
2022/06/20 07:29:14;;;;;;;12.30;5.70;;;25.30;84.50;;;;;;4972746;28;20082;-40
2022/06/20 07:31:49;;;;;;;9.18;5.70;;;25.40;76.50;;;;;;4970416;28;20034;-39
2022/06/20 07:34:32;;;;;;;13.73;5.70;;;25.50;73.60;;;;;;4972478;28;20042;-39
2022/06/20 07:37:02;;;;;;;9.00;5.47;;;25.60;70.80;;;;;;4972794;28;20046;-39
2022/06/20 07:39:34;;;;;;;9.95;5.50;;;25.70;69.30;;;;;;4970874;28;20544;-36
2022/06/20 07:42:26;;;;;;;9.45;5.13;;;25.90;71.60;;;;;;4971323;28;20057;-39
2022/06/20 07:44:57;;;;;;;9.18;4.93;;;26.10;64.80;;;;;;4972702;28;20030;-36
2022/06/20 07:47:34;;;;;;;6.80;4.90;;;26.20;68.20;;;;;;4972286;28;20018;-39
2022/06/20 07:50:08;;;;;;;7.55;4.63;;;26.20;62.60;;;;;;4969414;28;20030;-38
2022/06/20 07:52:54;;;;;;;8.18;5.20;;;26.30;60.80;;;;;;4971012;28;20038;-39
2022/06/20 07:55:23;;;;;;;5.15;4.60;;;26.20;64.20;;;;;;4962882;28;20062;-36
2022/06/20 07:57:58;;;;;;;10.23;4.78;;;26.00;61.00;;;;;;4972025;28;20030;-39
2022/06/20 08:00:28;;;;;;;9.60;4.40;;;25.80;62.00;;;;;;4973353;28;20027;-39
2022/06/20 08:03:12;;;;;;;5.93;4.25;;;26.00;65.20;;;;;;4969959;28;20034;-40
2022/06/20 08:05:44;;;;;;;6.45;4.03;;;26.50;62.40;;;;;;4968544;28;20070;-36
2022/06/20 08:08:13;;;;;;;6.00;4.25;;;26.60;53.80;;;;;;4971368;28;20027;-37
2022/06/20 08:10:47;;;;;;;4.13;3.40;;;26.70;57.70;;;;;;4972699;28;20062;-38
2022/06/20 08:13:18;;;;;;;6.60;4.07;;;26.60;53.80;;;;;;4972360;28;20532;-39
2022/06/20 08:15:54;;;;;;;7.13;3.58;;;26.90;59.30;;;;;;4970631;28;20057;-37
2022/06/20 08:18:21;;;;;;;7.10;3.88;;;27.00;54.50;;;;;;4967991;28;20027;-39
2022/06/20 08:20:55;;;;;;;7.03;4.20;;;27.30;59.80;;;;;;4973235;28;20027;-36
2022/06/20 08:23:28;;;;;;;4.68;3.15;;;27.40;53.60;;;;;;4972644;28;20540;-37
2022/06/20 08:25:58;;;;;;;8.68;4.18;;;27.10;50.70;;;;;;4970472;28;20031;-40
2022/06/20 08:28:31;;;;;;;6.93;4.18;;;26.80;53.80;;;;;;4967852;28;20031;-38
2022/06/20 08:31:03;;;;;;;6.93;4.30;;;27.10;57.80;;;;;;4971272;28;20725;-37
2022/06/20 08:33:41;;;;;;;5.97;3.97;;;27.30;55.60;;;;;;4972009;28;20064;-37
2022/06/20 08:36:16;;;;;;;6.55;3.70;;;26.90;54.60;;;;;;4971789;28;20039;-40
2022/06/20 08:38:48;;;;;;;7.45;3.85;;;26.80;53.80;;;;;;4971642;28;20042;-37
2022/06/20 08:41:32;;;;;;;7.20;4.20;;;26.60;55.30;;;;;;4969620;28;20467;-39
2022/06/20 08:44:35;;;;;;;5.82;4.05;;;26.30;52.60;;;;;;4969574;28;20033;-36
2022/06/20 08:47:27;;;;;;;10.95;4.20;;;26.20;56.40;;;;;;4970644;28;20023;-39
2022/06/20 08:50:07;;;;;;;5.53;3.65;;;26.30;52.50;;;;;;4969807;28;20023;-39
2022/06/20 08:52:42;;;;;;;5.35;3.70;;;26.50;53.20;;;;;;4970622;28;20078;-37
2022/06/20 08:55:47;;;;;;;5.18;3.55;;;26.90;53.60;;;;;;4970123;28;20090;-39
2022/06/20 08:58:16;;;;;;;4.95;3.28;;;27.10;52.50;;;;;;4968572;28;20038;-36
2022/06/20 09:01:02;;;;;;;5.07;3.70;;;27.00;54.40;;;;;;4971989;28;20046;-37
2022/06/20 09:03:38;;;;;;;4.38;3.70;;;27.10;51.80;;;;;;4968523;28;20093;-38
2022/06/20 09:06:24;;;;;;;7.35;3.65;;;27.10;53.60;;;;;;4971176;28;20480;-37
2022/06/20 09:09:13;;;;;;;9.75;3.85;;;27.40;53.70;;;;;;4955167;28;20113;-38
2022/06/20 09:12:10;;;;;;;3.97;3.28;;;27.10;52.60;;;;;;4971406;28;20102;-40
2022/06/20 09:15:02;;;;;;;4.28;3.17;;;26.80;50.90;;;;;;4970967;28;20030;-39
2022/06/20 09:17:37;;;;;;;6.72;4.38;;;26.50;53.00;;;;;;4972349;28;20046;-40
2022/06/20 09:20:20;;;;;;;6.22;3.60;;;26.70;52.10;;;;;;4984630;28;20392;-36
2022/06/20 09:22:51;;;;;;;9.80;3.67;;;26.90;51.30;;;;;;4970098;28;20031;-39
2022/06/20 09:25:38;;;;;;;8.45;4.20;;;27.10;53.20;;;;;;4971059;28;20117;-39
2022/06/20 09:28:04;;;;;;;9.27;3.65;;;27.30;53.70;;;;;;4969679;28;20081;-39
2022/06/20 09:31:04;;;;;;;5.32;3.80;;;27.50;52.50;;;;;;4965339;28;20027;-36
2022/06/20 09:33:59;;;;;;;5.03;3.53;;;27.30;50.90;;;;;;4947942;28;20070;-37
2022/06/20 09:36:32;;;;;;;4.32;3.20;;;27.10;53.60;;;;;;4965098;28;20113;-39
2022/06/20 09:39:16;;;;;;;7.30;3.50;;;27.00;53.90;;;;;;4972087;28;20047;-36
2022/06/20 09:42:07;;;;;;;5.82;3.58;;;27.10;49.80;;;;;;4968408;28;20496;-39
2022/06/20 09:44:38;;;;;;;4.88;3.63;;;27.70;52.40;;;;;;4970174;28;20038;-38
2022/06/20 09:48:00;;;;;;;5.78;3.30;;;27.90;51.60;;;;;;4972873;28;20097;-40
2022/06/20 09:50:34;;;;;;;7.18;3.80;;;27.80;50.90;;;;;;4972090;28;20026;-36
2022/06/20 09:53:05;;;;;;;5.65;3.90;;;27.50;51.00;;;;;;4969899;28;20056;-38
2022/06/20 09:55:44;;;;;;;5.40;3.80;;;27.60;52.10;;;;;;4973226;28;20027;-39
2022/06/20 09:58:24;;;;;;;5.20;4.00;;;27.80;52.80;;;;;;4972566;28;20411;-39
2022/06/20 10:01:16;;;;;;;7.72;3.63;;;28.10;49.30;;;;;;4970022;28;20570;-37
2022/06/20 10:04:02;;;;;;;4.32;3.90;;;27.80;47.50;;;;;;4980933;28;20500;-37
2022/06/20 10:06:59;;;;;;;5.82;3.90;;;27.90;49.00;;;;;;4972819;28;20019;-37
2022/06/20 10:09:27;;;;;;;;;;;28.30;47.40;;;;;;4974405;28;20030;-39
2022/06/20 10:12:08;;;;;;;6.20;3.45;;;28.50;49.20;;;;;;4973824;28;19913;-39
2022/06/20 10:15:09;;;;;;;3.60;3.25;;;28.50;47.30;;;;;;4972356;28;20428;-38
2022/06/20 10:17:58;;;;;;;4.25;3.67;;;28.10;45.80;;;;;;4974362;28;20031;-39
2022/06/20 10:20:30;;;;;;;3.60;3.25;;;27.90;45.60;;;;;;4971270;28;20057;-38
2022/06/20 10:23:16;;;;;;;5.38;3.50;;;27.90;44.00;;;;;;4972711;28;20031;-39
2022/06/20 10:26:34;;;;;;;6.57;3.45;;;27.70;47.20;;;;;;4972950;28;20436;-37
2022/06/20 10:29:14;;;;;;;3.65;3.35;;;28.10;46.10;;;;;;4944425;28;20035;-38
2022/06/20 10:31:43;;;;;;;6.78;4.00;;;28.20;43.20;;;;;;4971692;28;20039;-39
2022/06/20 10:34:30;;;;;;;6.47;3.78;;;27.80;42.90;;;;;;4973002;28;20094;-40
2022/06/20 10:37:29;;;;;;;5.20;4.10;;;27.90;45.40;;;;;;4968039;28;20130;-38
2022/06/20 10:40:16;;;;;;;7.65;4.10;;;28.10;47.10;;;;;;4966793;28;20042;-39
2022/06/20 10:42:54;;;;;;;6.13;3.77;;;28.00;46.80;;;;;;4976616;28;20054;-37
2022/06/20 10:45:31;;;;;;;4.85;3.53;;;28.40;46.90;;;;;;4976913;28;20045;-36
2022/06/20 10:48:20;;;;;;;9.50;4.13;;;28.30;44.60;;;;;;4977640;28;20396;-39
2022/06/20 10:51:12;;;;;;;4.15;3.72;;;28.20;45.70;;;;;;4977992;28;20035;-36
2022/06/20 10:53:56;;;;;;;5.28;3.75;;;27.90;46.30;;;;;;4976157;28;20042;-36
2022/06/20 10:56:25;;;;;;;5.32;4.00;;;27.70;45.90;;;;;;4976168;28;20535;-39
2022/06/20 10:59:03;;;;;;;5.50;3.80;;;27.60;46.70;;;;;;4975379;28;20089;-37
2022/06/20 11:01:46;;;;;;;6.55;3.63;;;27.70;48.40;;;;;;4974123;28;20058;-38
2022/06/20 11:04:31;;;;;;;7.45;4.18;;;27.60;48.60;;;;;;4971510;28;20578;-38
2022/06/20 11:07:11;;;;;;;5.43;4.13;;;27.50;47.20;;;;;;4972946;28;20517;-39
2022/06/20 11:09:40;;;;;;;5.60;4.55;;;27.60;47.80;;;;;;4986706;28;20560;-39
2022/06/20 11:12:20;;;;;;;5.90;4.38;;;27.80;50.00;;;;;;4972564;28;20085;-36
2022/06/20 11:15:02;;;;;;;4.57;4.18;;;27.90;48.20;;;;;;4975938;28;20035;-39
2022/06/20 11:17:50;;;;;;;7.00;4.28;;;27.80;47.80;;;;;;4973100;28;20026;-37
2022/06/20 11:20:34;;;;;;;10.98;3.72;;;27.90;52.20;;;;;;4970816;28;20085;-37
2022/06/20 11:23:17;;;;;;;6.07;4.28;;;27.90;48.50;;;;;;4976323;28;20023;-39
2022/06/20 11:26:08;;;;;;;4.82;4.43;;;27.90;49.00;;;;;;4976863;28;20512;-39
2022/06/20 11:28:52;;;;;;;5.90;4.20;;;27.90;49.60;;;;;;4975660;28;20019;-38
2022/06/20 11:31:37;;;;;;;5.15;4.15;;;28.10;50.90;;;;;;4974656;28;20158;-38
2022/06/20 11:34:37;;;;;;;7.38;4.03;;;28.00;47.10;;;;;;4971590;28;20496;-39
2022/06/20 11:37:43;;;;;;;4.78;3.55;;;27.90;49.00;;;;;;4975614;28;20138;-37
2022/06/20 11:40:40;;;;;;;6.53;4.63;;;28.10;50.30;;;;;;4981640;28;20125;-39
2022/06/20 11:43:26;;;;;;;6.22;4.63;;;28.10;50.90;;;;;;4974577;28;20919;-39
2022/06/20 11:46:20;;;;;;;5.17;4.67;;;28.40;49.30;;;;;;4975977;28;20035;-36
2022/06/20 11:49:07;;;;;;;6.18;4.82;;;28.50;48.00;;;;;;4975731;28;20035;-35
2022/06/20 11:51:45;;;;;;;5.90;3.70;;;28.40;49.00;;;;;;4972050;28;20385;-36
2022/06/20 11:54:17;;;;;;;7.28;5.07;;;28.50;49.00;;;;;;4976938;28;20034;-39
2022/06/20 11:56:48;;;;;;;4.88;4.30;;;28.60;49.10;;;;;;4971445;28;20488;-36
2022/06/20 11:59:35;;;;;;;5.00;4.60;;;28.90;52.20;;;;;;4976027;28;20309;-39
2022/06/20 12:02:39;;;;;;;7.80;4.32;;;28.90;49.60;;;;;;4972840;28;20039;-39
2022/06/20 12:05:28;;;;;;;5.22;4.57;;;28.80;47.40;;;;;;4973847;28;20031;-38
2022/06/20 12:08:08;;;;;;;6.47;4.50;;;28.70;48.60;;;;;;4976093;28;20074;-39
2022/06/20 12:10:44;;;;;;;4.72;4.43;;;28.70;47.20;;;;;;4978298;28;20019;-38
2022/06/20 12:13:28;;;;;;;7.63;4.55;;;28.70;47.90;;;;;;4976347;28;20027;-39
2022/06/20 12:16:06;;;;;;;3.97;3.58;;;28.60;47.10;;;;;;4975527;28;20038;-39
2022/06/20 12:24:45;;;;;;;6.40;4.45;;;28.80;46.90;;;;;;4976133;28;20104;-39
2022/06/20 12:27:13;;;;;;;6.88;4.50;;;28.80;49.00;;;;;;4974209;28;20506;-40
2022/06/20 12:29:39;;;;;;;7.00;4.57;;;29.00;47.80;;;;;;4974998;28;20034;-39
2022/06/20 12:32:15;;;;;;;6.15;4.70;;;29.10;47.10;;;;;;4974329;28;20412;-36
2022/06/20 12:35:02;;;;;;;5.57;4.97;;;28.90;47.40;;;;;;4974235;28;20062;-39
2022/06/20 12:37:43;;;;;;;5.63;4.35;;;29.00;46.80;;;;;;4974194;28;20038;-39
2022/06/20 12:40:23;;;;;;;8.93;4.40;;;29.20;46.60;;;;;;4974665;28;20046;-37
2022/06/20 12:43:23;;;;;;;5.95;4.65;;;29.30;44.10;;;;;;4971464;28;20510;-37
2022/06/20 12:46:09;;;;;;;7.30;5.30;;;29.10;46.40;;;;;;4972494;28;20800;-40
2022/06/20 12:49:01;;;;;;;6.07;4.53;;;29.00;47.50;;;;;;4975336;28;20077;-37
2022/06/20 12:51:45;;;;;;;5.47;4.72;;;28.90;47.20;;;;;;4958322;28;20043;-40
2022/06/20 12:54:20;;;;;;;8.60;4.97;;;28.90;46.10;;;;;;4966325;28;20038;-38
2022/06/20 12:57:05;;;;;;;5.30;4.78;;;29.00;47.80;;;;;;4973564;28;20445;-39
2022/06/20 12:59:45;;;;;;;5.85;4.72;;;29.10;45.90;;;;;;4973508;28;20030;-39
2022/06/20 13:02:36;;;;;;;7.53;4.30;;;29.20;45.50;;;;;;4971689;28;20034;-39
2022/06/20 13:05:23;;;;;;;6.05;4.00;;;29.20;45.50;;;;;;4949853;28;20046;-40
2022/06/20 13:08:28;;;;;;;7.38;4.35;;;29.30;47.20;;;;;;4968826;28;20046;-38
2022/06/20 13:11:23;;;;;;;4.85;4.45;;;29.00;42.30;;;;;;4985039;28;20133;-38
2022/06/20 13:13:57;;;;;;;5.15;3.42;;;29.00;43.90;;;;;;4971329;28;20523;-40
2022/06/20 13:16:45;;;;;;;3.25;2.70;;;28.70;44.00;;;;;;4974884;28;20035;-36
2022/06/20 13:19:26;;;;;;;4.97;4.10;;;28.40;45.50;;;;;;4975157;28;20031;-38
2022/06/20 13:22:26;;;;;;;7.65;4.13;;;28.40;44.60;;;;;;4974828;28;20037;-40
2022/06/20 13:24:58;;;;;;;5.45;4.45;;;28.50;45.90;;;;;;4967268;28;20038;-38
2022/06/20 13:27:26;;;;;;;6.90;4.18;;;28.70;45.90;;;;;;4974222;28;20082;-38
2022/06/20 13:30:18;;;;;;;9.18;4.95;;;28.90;47.40;;;;;;4974272;28;20030;-36
2022/06/20 13:32:53;;;;;;;5.57;3.88;;;28.80;43.90;;;;;;4973483;28;20400;-38
2022/06/20 13:35:53;;;;;;;7.90;4.18;;;28.60;44.20;;;;;;4975010;28;20034;-37
2022/06/20 13:38:27;;;;;;;5.80;4.68;;;28.50;46.40;;;;;;4971625;28;20031;-40
2022/06/20 13:41:06;;;;;;;6.15;4.55;;;28.50;46.10;;;;;;4969685;28;20038;-40
2022/06/20 13:43:41;;;;;;;10.50;4.85;;;28.20;47.50;;;;;;4974532;28;20031;-36
2022/06/20 13:46:25;;;;;;;13.77;4.72;;;27.50;51.90;;;;;;4975008;28;20109;-40
2022/06/20 13:49:02;;;;;;;8.18;4.70;;;26.90;53.50;;;;;;4972748;28;20455;-38